createdAt,value
2023-05-16T00:01:18.278Z,92.90
2023-05-16T00:03:45.705Z,92.80
2023-05-16T00:06:13.082Z,93.20
2023-05-16T00:08:40.535Z,93.30
2023-05-16T00:11:07.666Z,93.40
2023-05-16T00:13:35.021Z,93.40
2023-05-16T00:16:02.646Z,93.50
2023-05-16T00:18:30.244Z,93.80
2023-05-16T00:20:57.615Z,94.10
2023-05-16T00:23:24.798Z,93.80
2023-05-16T00:25:51.889Z,94.20
2023-05-16T00:28:18.981Z,93.70
2023-05-16T00:30:46.095Z,93.50
2023-05-16T00:33:13.343Z,93.50
2023-05-16T00:35:40.482Z,93.60
2023-05-16T00:38:07.821Z,93.50
2023-05-16T00:40:34.963Z,94.00
2023-05-16T00:43:02.241Z,94.10
2023-05-16T00:45:29.322Z,94.00
2023-05-16T00:47:56.963Z,94.00
2023-05-16T00:52:51.402Z,94.00
2023-05-16T00:55:18.550Z,94.00
2023-05-16T00:57:45.919Z,93.90
2023-05-16T01:00:15.571Z,93.80
2023-05-16T01:02:43.641Z,93.70
2023-05-16T01:05:12.047Z,93.80
2023-05-16T01:07:40.143Z,93.90
2023-05-16T01:10:09.292Z,94.00
2023-05-16T01:13:00.224Z,94.30
2023-05-16T01:15:56.416Z,94.30
2023-05-16T01:18:40.253Z,94.50
2023-05-16T01:21:25.353Z,94.50
2023-05-16T01:24:13.578Z,94.50
2023-05-16T01:26:42.126Z,94.50
2023-05-16T01:29:09.616Z,94.50
2023-05-16T01:31:36.755Z,94.80
2023-05-16T01:34:03.989Z,95.10
2023-05-16T01:36:52.496Z,95.50
2023-05-16T01:39:56.720Z,95.70
2023-05-16T01:42:33.009Z,96.10
2023-05-16T01:45:14.998Z,96.40
2023-05-16T01:48:05.582Z,96.40
2023-05-16T01:50:40.507Z,96.80
2023-05-16T01:53:15.125Z,96.70
2023-05-16T01:55:51.388Z,96.60
2023-05-16T01:58:25.204Z,96.50
2023-05-16T02:01:01.253Z,97.00
2023-05-16T02:03:28.557Z,96.90
2023-05-16T02:05:55.641Z,97.00
2023-05-16T02:08:23.931Z,97.00
2023-05-16T02:10:51.614Z,97.10
2023-05-16T02:13:19.215Z,97.20
2023-05-16T02:15:46.380Z,97.50
2023-05-16T02:18:13.578Z,97.60
2023-05-16T02:20:40.707Z,97.60
2023-05-16T02:23:07.798Z,97.50
2023-05-16T02:25:34.854Z,97.80
2023-05-16T02:28:02.004Z,97.80
2023-05-16T02:30:29.097Z,98.00
2023-05-16T02:32:56.400Z,97.80
2023-05-16T02:35:23.702Z,97.70
2023-05-16T02:37:51.024Z,98.00
2023-05-16T02:40:18.255Z,98.20
2023-05-16T02:42:45.332Z,98.40
2023-05-16T02:45:12.599Z,98.60
2023-05-16T02:47:39.798Z,98.80
2023-05-16T02:50:07.527Z,98.90
2023-05-16T02:52:35.206Z,99.10
2023-05-16T02:57:32.607Z,99.20
2023-05-16T02:59:59.651Z,99.30
2023-05-16T03:02:27.382Z,99.30
2023-05-16T03:04:54.558Z,99.30
2023-05-16T03:07:21.669Z,99.40
2023-05-16T03:09:48.902Z,99.40
2023-05-16T03:12:15.997Z,99.40
2023-05-16T03:14:43.133Z,99.60
2023-05-16T03:17:10.535Z,99.70
2023-05-16T03:19:37.708Z,99.60
2023-05-16T03:22:04.930Z,99.70
2023-05-16T03:24:32.038Z,99.70
2023-05-16T03:27:00.177Z,99.70
2023-05-16T03:29:27.331Z,99.60
2023-05-16T03:31:55.253Z,99.50
2023-05-16T03:34:22.918Z,99.40
2023-05-16T03:36:50.841Z,99.40
2023-05-16T03:39:18.058Z,99.10
2023-05-16T03:41:45.232Z,99.10
2023-05-16T03:44:12.358Z,98.90
2023-05-16T03:46:39.537Z,98.80
2023-05-16T03:49:06.666Z,98.60
2023-05-16T03:51:34.225Z,98.50
2023-05-16T03:54:01.314Z,98.30
2023-05-16T03:56:28.475Z,98.30
2023-05-16T03:58:55.595Z,98.20
2023-05-16T04:01:22.701Z,98.10
2023-05-16T04:03:50.863Z,98.10
2023-05-16T04:06:18.121Z,98.00
2023-05-16T04:08:45.633Z,98.10
2023-05-16T04:11:12.742Z,98.10
2023-05-16T04:13:39.892Z,98.10
2023-05-16T04:16:07.787Z,98.10
2023-05-16T04:18:34.966Z,98.20
2023-05-16T04:21:02.595Z,98.00
2023-05-16T04:23:29.721Z,98.20
2023-05-16T04:25:57.069Z,98.20
2023-05-16T04:28:24.208Z,97.90
2023-05-16T04:30:51.678Z,98.00
2023-05-16T04:33:19.005Z,97.90
2023-05-16T04:35:46.140Z,97.90
2023-05-16T04:38:13.220Z,97.80
2023-05-16T04:40:41.803Z,97.60
2023-05-16T04:43:08.945Z,97.50
2023-05-16T04:45:37.576Z,97.50
2023-05-16T04:48:05.666Z,97.70
2023-05-16T04:50:32.820Z,97.70
2023-05-16T04:52:59.967Z,97.70
2023-05-16T04:55:27.220Z,97.90
2023-05-16T04:57:54.605Z,97.90
2023-05-16T05:00:21.952Z,97.90
2023-05-16T05:02:49.145Z,97.80
2023-05-16T05:05:16.329Z,97.80
2023-05-16T05:07:43.576Z,97.90
2023-05-16T05:10:11.988Z,98.00
2023-05-16T05:12:39.090Z,98.00
2023-05-16T05:15:07.219Z,98.40
2023-05-16T05:17:34.482Z,98.10
2023-05-16T05:20:03.215Z,98.10
2023-05-16T05:22:30.797Z,98.50
2023-05-16T05:24:57.856Z,98.50
2023-05-16T05:27:25.499Z,98.50
2023-05-16T05:29:52.656Z,98.50
2023-05-16T05:32:19.723Z,98.50
2023-05-16T05:34:46.777Z,98.60
2023-05-16T05:37:14.668Z,98.60
2023-05-16T05:39:41.848Z,98.60
2023-05-16T05:42:09.463Z,99.00
2023-05-16T05:44:37.906Z,98.70
2023-05-16T05:47:07.433Z,98.50
2023-05-16T05:49:35.909Z,98.40
2023-05-16T05:52:03.169Z,98.40
2023-05-16T05:54:30.361Z,98.40
2023-05-16T05:56:58.471Z,98.30
2023-05-16T05:59:25.920Z,98.30
2023-05-16T06:01:53.467Z,98.20
2023-05-16T06:04:21.524Z,98.20
2023-05-16T06:06:48.812Z,98.00
2023-05-16T06:09:16.250Z,97.80
2023-05-16T06:11:45.839Z,97.70
2023-05-16T06:14:14.685Z,97.90
2023-05-16T06:16:41.972Z,97.70
2023-05-16T06:19:09.599Z,97.60
2023-05-16T06:21:37.326Z,97.60
2023-05-16T06:24:04.707Z,97.50
2023-05-16T06:26:32.670Z,97.50
2023-05-16T06:28:59.731Z,97.70
2023-05-16T06:31:26.904Z,97.70
2023-05-16T06:33:54.010Z,97.70
2023-05-16T06:36:21.198Z,97.60
2023-05-16T06:38:48.289Z,97.70
2023-05-16T06:41:15.423Z,97.70
2023-05-16T06:43:42.707Z,97.70
2023-05-16T06:46:09.910Z,97.70
2023-05-16T06:48:37.070Z,97.60
2023-05-16T06:51:04.463Z,97.40
2023-05-16T06:53:31.969Z,97.50
2023-05-16T06:55:59.126Z,97.40
2023-05-16T06:58:26.552Z,97.40
2023-05-16T07:00:53.700Z,97.50
2023-05-16T07:03:20.972Z,97.50
2023-05-16T07:05:48.218Z,97.50
2023-05-16T07:08:15.400Z,97.60
2023-05-16T07:10:42.579Z,97.80
2023-05-16T07:13:09.687Z,97.70
2023-05-16T07:15:36.819Z,97.90
2023-05-16T07:18:04.243Z,97.90
2023-05-16T07:20:31.502Z,98.00
2023-05-16T07:22:59.468Z,97.90
2023-05-16T07:25:27.109Z,97.70
2023-05-16T07:27:54.460Z,97.90
2023-05-16T07:30:21.772Z,97.90
2023-05-16T07:32:49.532Z,97.90
2023-05-16T07:35:17.020Z,98.00
2023-05-16T07:37:44.223Z,97.90
2023-05-16T07:40:12.273Z,97.90
2023-05-16T07:42:39.429Z,97.90
2023-05-16T07:45:07.740Z,97.90
2023-05-16T07:47:35.490Z,98.00
2023-05-16T07:50:03.052Z,97.90
2023-05-16T07:52:30.188Z,98.10
2023-05-16T07:54:58.366Z,98.10
2023-05-16T07:57:25.957Z,98.40
2023-05-16T07:59:53.308Z,98.00
2023-05-16T08:02:21.052Z,98.00
2023-05-16T08:04:49.081Z,98.10
2023-05-16T08:07:16.493Z,98.20
2023-05-16T08:09:43.684Z,98.20
2023-05-16T08:12:10.924Z,98.30
2023-05-16T08:14:38.148Z,98.40
2023-05-16T08:17:05.594Z,98.40
2023-05-16T08:19:33.144Z,98.50
2023-05-16T08:22:00.302Z,98.50
2023-05-16T08:24:27.470Z,98.30
2023-05-16T08:26:54.732Z,98.30
2023-05-16T08:29:22.160Z,98.30
2023-05-16T08:31:49.585Z,98.40
2023-05-16T08:34:16.852Z,98.40
2023-05-16T08:36:44.086Z,98.80
2023-05-16T08:39:11.658Z,98.40
2023-05-16T08:41:39.744Z,98.60
2023-05-16T08:44:07.211Z,98.50
2023-05-16T08:46:37.171Z,98.50
2023-05-16T08:49:08.060Z,98.40
2023-05-16T08:51:38.047Z,98.30
2023-05-16T08:54:12.079Z,98.40
2023-05-16T08:56:44.796Z,98.20
2023-05-16T08:59:13.138Z,97.90
2023-05-16T09:01:41.612Z,97.70
2023-05-16T09:04:10.420Z,97.90
2023-05-16T09:06:37.730Z,97.70
2023-05-16T09:09:08.147Z,97.70
2023-05-16T09:11:37.044Z,97.50
2023-05-16T09:14:05.685Z,97.80
2023-05-16T09:16:32.863Z,97.60
2023-05-16T09:19:02.183Z,97.40
2023-05-16T09:21:35.398Z,97.10
2023-05-16T09:24:10.623Z,97.10
2023-05-16T09:26:39.687Z,97.00
2023-05-16T09:29:14.642Z,97.00
2023-05-16T09:31:42.631Z,97.20
2023-05-16T09:34:12.256Z,96.90
2023-05-16T09:36:41.543Z,96.80
2023-05-16T09:39:11.311Z,96.80
2023-05-16T09:41:38.771Z,96.70
2023-05-16T09:44:09.054Z,96.60
2023-05-16T09:46:38.740Z,96.30
2023-05-16T09:49:06.357Z,96.30
2023-05-16T09:51:37.669Z,96.20
2023-05-16T09:54:08.961Z,96.10
2023-05-16T09:56:50.157Z,96.10
2023-05-16T09:59:17.550Z,96.60
2023-05-16T10:01:45.129Z,96.50
2023-05-16T10:04:16.217Z,96.30
2023-05-16T10:06:45.771Z,96.10
2023-05-16T10:09:16.429Z,95.30
2023-05-16T10:11:45.168Z,94.50
2023-05-16T10:14:17.816Z,94.40
2023-05-16T10:16:49.751Z,94.30
2023-05-16T10:19:25.629Z,94.30
2023-05-16T10:21:59.812Z,94.50
2023-05-16T10:24:42.781Z,94.60
2023-05-16T10:27:10.984Z,94.70
2023-05-16T10:29:50.328Z,95.00
2023-05-16T10:32:25.670Z,95.00
2023-05-16T10:34:55.716Z,94.80
2023-05-16T10:37:24.905Z,94.90
2023-05-16T10:39:53.182Z,94.70
2023-05-16T10:42:21.159Z,94.80
2023-05-16T10:44:58.537Z,94.40
2023-05-16T10:47:33.309Z,94.10
2023-05-16T10:50:00.714Z,94.10
2023-05-16T10:52:35.447Z,93.70
2023-05-16T10:55:05.056Z,93.20
2023-05-16T10:57:34.576Z,93.10
2023-05-16T11:00:04.230Z,93.00
2023-05-16T11:02:40.872Z,93.20
2023-05-16T11:05:18.148Z,93.00
2023-05-16T11:08:02.096Z,92.80
2023-05-16T11:10:29.299Z,92.30
2023-05-16T11:13:07.326Z,92.10
2023-05-16T11:15:34.793Z,92.20
2023-05-16T11:18:10.649Z,92.10
2023-05-16T11:20:39.600Z,92.00
2023-05-16T11:23:26.456Z,90.80
2023-05-16T11:25:55.993Z,90.30
2023-05-16T11:28:26.989Z,89.60
2023-05-16T11:30:58.379Z,90.10
2023-05-16T11:33:26.074Z,90.20
2023-05-16T11:38:43.708Z,89.00
2023-05-16T11:41:11.864Z,88.20
2023-05-16T11:43:45.139Z,86.90
2023-05-16T11:46:17.007Z,88.20
2023-05-16T11:48:46.469Z,87.00
2023-05-16T11:51:18.741Z,86.40
2023-05-16T11:53:49.848Z,85.30
2023-05-16T11:56:17.264Z,85.70
2023-05-16T11:58:45.740Z,85.80
2023-05-16T12:01:13.021Z,85.90
2023-05-16T12:03:41.010Z,85.30
2023-05-16T12:06:08.792Z,85.40
2023-05-16T12:08:36.047Z,85.10
2023-05-16T12:11:03.296Z,84.30
2023-05-16T12:13:30.709Z,83.10
2023-05-16T12:15:58.700Z,82.60
2023-05-16T12:18:26.370Z,83.00
2023-05-16T12:20:54.013Z,83.50
2023-05-16T12:23:21.198Z,83.30
2023-05-16T12:25:49.557Z,81.90
2023-05-16T12:28:16.834Z,81.20
2023-05-16T12:30:48.020Z,80.70
2023-05-16T12:33:17.109Z,80.20
2023-05-16T12:35:47.687Z,80.70
2023-05-16T12:38:17.364Z,81.30
2023-05-16T12:40:45.657Z,81.10
2023-05-16T12:43:23.362Z,80.00
2023-05-16T12:45:56.182Z,78.90
2023-05-16T12:48:29.962Z,78.50
2023-05-16T12:50:57.094Z,78.80
2023-05-16T12:53:24.184Z,77.80
2023-05-16T12:55:51.502Z,78.40
2023-05-16T12:58:18.708Z,77.40
2023-05-16T13:00:45.948Z,74.00
2023-05-16T13:03:13.162Z,74.40
2023-05-16T13:05:41.090Z,75.20
2023-05-16T13:08:08.262Z,73.20
2023-05-16T13:10:36.153Z,71.90
2023-05-16T13:13:04.535Z,71.90
2023-05-16T13:15:31.845Z,71.30
2023-05-16T13:17:59.146Z,70.80
2023-05-16T13:20:26.473Z,70.80
2023-05-16T13:22:53.644Z,69.60
2023-05-16T13:25:20.967Z,67.40
2023-05-16T13:27:49.456Z,65.60
2023-05-16T13:30:16.804Z,62.80
2023-05-16T13:32:44.347Z,64.00
2023-05-16T13:35:11.474Z,64.10
2023-05-16T13:37:38.743Z,63.90
2023-05-16T13:40:10.362Z,62.00
2023-05-16T13:42:38.782Z,60.10
2023-05-16T13:45:07.126Z,58.70
2023-05-16T13:47:34.350Z,58.50
2023-05-16T13:50:07.912Z,59.80
2023-05-16T13:52:37.693Z,59.50
2023-05-16T13:55:06.354Z,58.70
2023-05-16T13:57:33.638Z,58.20
2023-05-16T14:00:24.668Z,58.30
2023-05-16T14:02:48.502Z,57.60
2023-05-16T14:05:15.742Z,57.00
2023-05-16T14:07:44.727Z,55.90
2023-05-16T14:10:13.305Z,56.90
2023-05-16T14:12:40.682Z,56.90
2023-05-16T14:15:08.645Z,55.40
2023-05-16T14:17:35.845Z,54.90
2023-05-16T14:20:04.249Z,54.60
2023-05-16T14:22:33.003Z,55.70
2023-05-16T14:25:00.443Z,52.80
2023-05-16T14:27:27.560Z,53.20
2023-05-16T14:29:54.631Z,53.20
2023-05-16T14:32:22.211Z,52.70
2023-05-16T14:34:49.505Z,52.40
2023-05-16T14:37:16.989Z,52.40
2023-05-16T14:39:46.630Z,52.00
2023-05-16T14:42:13.848Z,52.90
2023-05-16T14:44:41.118Z,53.70
2023-05-16T14:47:08.253Z,53.80
2023-05-16T14:49:35.817Z,52.20
2023-05-16T14:52:02.945Z,51.40
2023-05-16T14:54:30.050Z,52.60
2023-05-16T14:56:57.260Z,52.20
2023-05-16T14:59:24.388Z,52.60
2023-05-16T15:01:51.638Z,51.80
2023-05-16T15:04:18.863Z,51.50
2023-05-16T15:06:46.221Z,52.50
2023-05-16T15:09:13.629Z,51.80
2023-05-16T15:11:40.807Z,51.70
2023-05-16T15:14:08.044Z,51.90
2023-05-16T15:16:35.292Z,52.70
2023-05-16T15:19:02.595Z,53.10
2023-05-16T15:21:31.612Z,52.30
2023-05-16T15:23:59.156Z,50.20
2023-05-16T15:26:26.638Z,51.00
2023-05-16T15:28:55.669Z,50.50
2023-05-16T15:31:23.120Z,51.40
2023-05-16T15:33:50.748Z,50.30
2023-05-16T15:36:17.925Z,50.10
2023-05-16T15:38:45.832Z,50.30
2023-05-16T15:41:31.465Z,50.60
2023-05-16T15:44:00.959Z,51.00
2023-05-16T15:46:30.445Z,50.70
2023-05-16T15:48:57.831Z,50.60
2023-05-16T15:51:25.070Z,49.80
2023-05-16T15:53:52.920Z,49.10
2023-05-16T15:56:20.120Z,49.80
2023-05-16T15:58:47.342Z,49.90
2023-05-16T16:01:14.482Z,50.20
2023-05-16T16:03:41.841Z,48.90
2023-05-16T16:06:09.451Z,49.30
2023-05-16T16:08:36.603Z,48.70
2023-05-16T16:11:04.865Z,49.50
2023-05-16T16:13:33.062Z,49.80
2023-05-16T16:16:00.204Z,49.00
2023-05-16T16:18:27.761Z,49.10
2023-05-16T16:20:55.025Z,48.10
2023-05-16T16:23:22.646Z,47.70
2023-05-16T16:25:50.361Z,47.50
2023-05-16T16:28:17.557Z,47.10
2023-05-16T16:30:47.295Z,47.00
2023-05-16T16:33:14.509Z,47.50
2023-05-16T16:35:41.774Z,47.80
2023-05-16T16:38:09.020Z,47.50
2023-05-16T16:40:36.266Z,47.60
2023-05-16T16:43:06.037Z,47.40
2023-05-16T16:45:33.615Z,45.90
2023-05-16T16:48:00.795Z,46.60
2023-05-16T16:50:27.997Z,45.60
2023-05-16T16:52:55.179Z,44.90
2023-05-16T16:55:22.304Z,44.60
2023-05-16T16:57:49.439Z,45.70
2023-05-16T17:00:17.233Z,46.90
2023-05-16T17:02:44.520Z,46.70
2023-05-16T17:05:11.856Z,47.60
2023-05-16T17:07:39.305Z,47.60
2023-05-16T17:10:08.068Z,48.10
2023-05-16T17:12:36.169Z,48.30
2023-05-16T17:15:03.573Z,48.40
2023-05-16T17:17:31.052Z,47.90
2023-05-16T17:19:58.429Z,48.20
2023-05-16T17:22:25.884Z,47.10
2023-05-16T17:24:53.028Z,47.30
2023-05-16T17:27:20.211Z,47.50
2023-05-16T17:29:47.384Z,48.50
2023-05-16T17:32:14.806Z,49.30
2023-05-16T17:34:42.492Z,49.60
2023-05-16T17:37:10.635Z,50.10
2023-05-16T17:39:38.893Z,50.50
2023-05-16T17:42:06.517Z,50.60
2023-05-16T17:44:33.887Z,50.80
2023-05-16T17:47:01.082Z,50.50
2023-05-16T17:49:28.307Z,50.60
2023-05-16T17:51:59.166Z,50.80
2023-05-16T17:54:30.528Z,51.30
2023-05-16T17:56:58.059Z,51.70
2023-05-16T17:59:27.367Z,51.70
2023-05-16T18:01:57.919Z,52.00
2023-05-16T18:04:25.553Z,52.60
2023-05-16T18:06:52.963Z,53.10
2023-05-16T18:09:20.862Z,53.30
2023-05-16T18:11:48.153Z,53.10
2023-05-16T18:14:15.720Z,53.70
2023-05-16T18:16:43.930Z,53.90
2023-05-16T18:19:11.749Z,54.20
2023-05-16T18:21:40.057Z,54.30
2023-05-16T18:24:08.541Z,54.70
2023-05-16T18:26:36.787Z,54.80
2023-05-16T18:29:03.995Z,54.40
2023-05-16T18:31:33.689Z,54.40
2023-05-16T18:34:04.053Z,54.30
2023-05-16T18:36:31.686Z,54.20
2023-05-16T18:38:58.862Z,54.60
2023-05-16T18:41:27.017Z,54.90
2023-05-16T18:43:54.118Z,55.00
2023-05-16T18:46:21.242Z,55.20
2023-05-16T18:48:48.322Z,55.40
2023-05-16T18:51:15.516Z,55.50
2023-05-16T18:53:42.649Z,55.90
2023-05-16T18:56:09.769Z,56.00
2023-05-16T18:58:36.880Z,56.10
2023-05-16T19:01:04.731Z,57.00
2023-05-16T19:03:31.951Z,56.50
2023-05-16T19:05:59.399Z,55.90
2023-05-16T19:08:31.227Z,56.10
2023-05-16T19:11:04.153Z,56.30
2023-05-16T19:13:32.364Z,56.50
2023-05-16T19:15:59.433Z,57.20
2023-05-16T19:18:27.014Z,56.90
2023-05-16T19:20:54.178Z,56.80
2023-05-16T19:23:21.684Z,56.90
2023-05-16T19:25:49.212Z,57.30
2023-05-16T19:28:16.824Z,57.60
2023-05-16T19:30:44.181Z,57.80
2023-05-16T19:33:11.440Z,58.00
2023-05-16T19:35:39.585Z,58.70
2023-05-16T19:38:06.934Z,59.20
2023-05-16T19:40:34.507Z,59.00
2023-05-16T19:43:01.701Z,58.70
2023-05-16T19:45:29.218Z,59.20
2023-05-16T19:47:56.862Z,59.50
2023-05-16T19:50:24.065Z,59.80
2023-05-16T19:52:51.376Z,60.00
2023-05-16T19:55:18.638Z,60.00
2023-05-16T19:57:46.034Z,60.40
2023-05-16T20:00:14.277Z,61.00
2023-05-16T20:02:43.126Z,61.80
2023-05-16T20:05:11.091Z,61.50
2023-05-16T20:07:40.362Z,62.20
2023-05-16T20:10:10.693Z,62.30
2023-05-16T20:12:38.016Z,62.30
2023-05-16T20:15:08.726Z,62.80
2023-05-16T20:17:35.971Z,63.00
2023-05-16T20:20:05.375Z,62.80
2023-05-16T20:22:33.848Z,63.30
2023-05-16T20:25:01.212Z,63.30
2023-05-16T20:27:29.739Z,63.70
2023-05-16T20:29:58.949Z,63.60
2023-05-16T20:32:26.062Z,64.40
2023-05-16T20:34:53.193Z,64.70
2023-05-16T20:37:23.311Z,65.60
2023-05-16T20:39:50.464Z,65.30
2023-05-16T20:42:17.641Z,65.50
2023-05-16T20:44:44.957Z,65.80
2023-05-16T20:47:12.437Z,65.50
2023-05-16T20:49:39.917Z,66.20
2023-05-16T20:52:07.308Z,66.70
2023-05-16T20:54:34.707Z,66.30
2023-05-16T20:57:02.656Z,66.60
2023-05-16T20:59:29.822Z,66.60
2023-05-16T21:01:57.636Z,66.80
2023-05-16T21:04:25.865Z,67.60
2023-05-16T21:06:53.085Z,68.20
2023-05-16T21:09:20.232Z,68.70
2023-05-16T21:11:47.556Z,69.00
2023-05-16T21:14:14.954Z,69.00
2023-05-16T21:16:42.436Z,68.80
2023-05-16T21:19:09.716Z,68.90
2023-05-16T21:21:37.149Z,69.90
2023-05-16T21:24:05.433Z,69.90
2023-05-16T21:26:32.762Z,70.20
2023-05-16T21:28:59.875Z,70.80
2023-05-16T21:31:27.184Z,71.20
2023-05-16T21:33:54.353Z,71.60
2023-05-16T21:36:21.799Z,71.80
2023-05-16T21:38:49.151Z,71.40
2023-05-16T21:41:18.124Z,70.90
2023-05-16T21:43:45.443Z,70.60
2023-05-16T21:46:12.672Z,70.30
2023-05-16T21:48:40.050Z,71.00
2023-05-16T21:51:07.480Z,70.80
2023-05-16T21:53:34.605Z,70.80
2023-05-16T21:56:01.704Z,71.70
2023-05-16T21:58:28.873Z,73.10
2023-05-16T22:00:56.319Z,73.20
2023-05-16T22:03:24.201Z,73.20
2023-05-16T22:05:51.546Z,72.90
2023-05-16T22:08:18.686Z,73.10
2023-05-16T22:10:45.803Z,72.60
2023-05-16T22:13:12.947Z,73.70
2023-05-16T22:15:42.480Z,73.70
2023-05-16T22:18:11.818Z,74.20
2023-05-16T22:20:38.985Z,74.20
2023-05-16T22:23:06.132Z,74.70
2023-05-16T22:25:33.271Z,75.20
2023-05-16T22:28:00.450Z,74.80
2023-05-16T22:30:27.588Z,75.10
2023-05-16T22:32:57.116Z,75.50
2023-05-16T22:35:25.494Z,75.80
2023-05-16T22:37:52.662Z,75.20
2023-05-16T22:40:19.971Z,75.40
2023-05-16T22:42:47.021Z,76.20
2023-05-16T22:45:14.140Z,76.20
2023-05-16T22:47:41.314Z,75.90
2023-05-16T22:50:08.914Z,76.40
2023-05-16T22:52:41.170Z,77.00
2023-05-16T22:55:11.342Z,77.20
2023-05-16T22:57:38.423Z,76.30
2023-05-16T23:00:06.646Z,76.20
2023-05-16T23:02:34.273Z,76.00
2023-05-16T23:05:01.625Z,75.70
2023-05-16T23:07:30.228Z,75.40
2023-05-16T23:09:57.333Z,76.10
2023-05-16T23:12:25.392Z,75.20
2023-05-16T23:14:52.783Z,76.20
2023-05-16T23:17:19.959Z,75.30
2023-05-16T23:19:47.217Z,75.80
2023-05-16T23:22:14.463Z,76.60
2023-05-16T23:24:41.597Z,76.80
2023-05-16T23:27:08.790Z,77.80
2023-05-16T23:29:36.022Z,78.00
2023-05-16T23:34:30.711Z,77.80
2023-05-16T23:36:57.855Z,79.00
2023-05-16T23:39:25.357Z,78.10
2023-05-16T23:41:52.615Z,78.50
2023-05-16T23:44:19.878Z,78.40
2023-05-16T23:46:47.006Z,79.00
2023-05-16T23:49:14.343Z,79.20
2023-05-16T23:51:56.132Z,79.10
2023-05-16T23:54:24.326Z,79.20
2023-05-16T23:56:51.528Z,79.60
2023-05-16T23:59:19.275Z,80.70
